CST,Max TemperatureF,Mean TemperatureF,Min TemperatureF,Max Dew PointF,MeanDew PointF,Min DewpointF,Max Humidity, Mean Humidity, Min Humidity, Max Sea Level PressureIn, Mean Sea Level PressureIn, Min Sea Level PressureIn, Max VisibilityMiles, Mean VisibilityMiles, Min VisibilityMiles, Max Wind SpeedMPH, Mean Wind SpeedMPH, Max Gust SpeedMPH,PrecipitationIn, CloudCover, Events, WindDirDegrees
2012-11-1,81,62,42,48,40,32,89,54,17,30.11,29.97,29.89,10,10,10,9,5,,0.00,0,,124
2012-11-2,86,64,44,53,44,33,97,61,16,30.00,29.89,29.78,10,8,2,10,6,,0.00,1,,132
2012-11-3,73,62,51,52,47,37,83,60,34,30.09,29.97,29.85,10,10,10,15,8,,0.00,2,,24
2012-11-4,77,60,44,49,45,41,90,66,36,30.16,30.08,30.01,,,,8,5,,0.00,0,,320
2012-11-5,75,58,42,44,37,31,93,53,20,30.13,30.08,30.02,10,10,6,12,6,,0.00,0,,49
2012-11-6,79,59,39,42,35,31,73,47,17,30.14,30.08,30.03,10,10,10,9,4,,0.00,0,,86
2012-11-7,81,62,42,46,39,34,79,49,19,30.12,30.01,29.92,10,10,10,12,7,,0.00,0,,123
2012-11-8,86,64,42,52,43,32,93,54,14,29.98,29.88,29.78,10,10,10,14,6,,0.00,0,,143
2012-11-9,84,68,53,56,47,38,89,55,20,29.90,29.81,29.75,10,10,10,15,10,22,0.00,0,,157
2012-11-10,84,70,55,57,46,30,83,49,14,29.78,29.68,29.56,10,10,7,23,13,39,0.00,2,Rain-Thunderstorm,175
2012-11-11,63,48,30,36,18,1,53,30,9,30.29,30.00,29.69,10,10,10,16,9,37,0.00,0,,327
2012-11-12,55,39,23,16,6,2,46,27,11,30.48,30.39,30.31,10,9,4,7,5,,0.00,0,,206
2012-11-13,60,50,39,24,21,19,51,36,22,30.34,30.25,30.15,10,10,10,17,9,24,0.00,0,,116
2012-11-14,64,44,25,26,22,17,72,45,20,30.35,30.25,30.15,10,10,10,8,4,,0.00,0,,96
2012-11-15,73,52,30,38,27,17,85,47,17,30.20,30.14,30.07,10,10,10,8,3,,0.00,0,,21
2012-11-16,66,54,43,46,38,25,80,55,36,30.30,30.21,30.16,10,10,10,13,7,17,0.00,0,,96
2012-11-17,68,60,51,48,46,43,82,66,45,30.26,30.16,30.06,10,10,10,15,9,22,0.00,4,,139
2012-11-18,66,60,53,51,47,43,83,68,54,30.11,30.06,30.01,10,10,10,10,7,,0.00,3,,130
2012-11-19,75,57,39,50,40,33,100,71,22,30.23,30.13,30.06,10,7,0,9,3,,0.00,1,Fog,342
2012-11-20,75,56,37,35,31,26,82,45,17,30.23,30.15,30.10,10,10,10,7,4,,0.00,0,,18
2012-11-21,75,64,53,52,45,28,77,52,34,30.14,30.06,29.99,10,10,10,15,7,,0.00,0,,135
2012-11-22,81,66,51,51,42,26,86,50,20,30.06,29.97,29.90,10,10,10,14,7,,0.00,0,,194
2012-11-23,62,52,41,29,20,14,40,29,16,30.48,30.36,30.09,10,10,10,21,12,28,0.00,0,,47
2012-11-24,66,47,28,35,25,14,67,43,27,30.40,30.21,30.01,10,10,10,16,6,,0.00,0,,151
2012-11-25,80,56,33,39,31,25,76,45,13,29.98,29.88,29.77,10,10,10,15,7,23,0.00,0,,241
2012-11-26,80,60,39,32,27,18,58,37,11,30.34,30.00,29.83,10,10,10,20,6,28,0.00,1,,18
2012-11-27,57,42,28,26,23,20,69,49,29,30.44,30.34,30.26,10,10,9,9,6,,0.00,0,,53
2012-11-28,73,50,28,40,29,18,67,47,23,30.31,30.21,30.10,10,10,10,12,5,,0.00,0,,122
2012-11-29,77,56,36,40,36,32,89,53,20,30.11,30.05,29.96,10,10,10,12,7,,0.00,0,,170
2012-11-30,79,56,33,42,34,25,100,70,14,30.15,30.05,29.93,10,6,0,13,4,17,0.00,2,Fog,275